KAIT

Aitkin Municipal-Steve Kurtz Field Airport

Aitkin, Minnesota, USA
METAR KAIT 220955Z AUTO 00000KT 10SM OVC075 10/08 A3000 RMK AO2
Observed Flight Rules
May-22 @ 09:55 UTC (16 minutes ago) Visual Flight Rules
Visibility Clouds
10 miles
  • Overcast at 7,500' AGL
Temperatures Readings
Current 10°C / 50°F
Dewpoint 8°C / 46°F
Humidity 88%
Altimeter 30" Hg
Pressure 1016 hPa
Elevation 367
METAR KAIT 220955Z AUTO 00000KT 10SM OVC075 10/08 A3000 RMK AO2
Observed Flight Rules
May-22 @ 09:55 UTC
(16 minutes ago)
VFR
Clouds
  • Overcast at 7,500' AGL
Temperature Dewpoint
10°C / 50°F 8°C / 46°F
Humidity Altimeter Pressure
88% 30" Hg 1016 hPa